createdAt,value
2023-02-18T00:01:20.940Z,2.20
2023-02-18T00:03:53.135Z,2.10
2023-02-18T00:06:23.974Z,2.20
2023-02-18T00:08:53.819Z,2.10
2023-02-18T00:11:23.066Z,2.53
2023-02-18T00:13:52.365Z,2.37
2023-02-18T00:16:21.926Z,1.90
2023-02-18T00:18:56.216Z,2.43
2023-02-18T00:21:24.695Z,1.90
2023-02-18T00:23:55.229Z,2.00
2023-02-18T00:26:23.625Z,2.10
2023-02-18T00:28:53.179Z,2.13
2023-02-18T00:31:23.838Z,1.63
2023-02-18T00:33:55.325Z,1.77
2023-02-18T00:36:26.861Z,2.83
2023-02-18T00:38:56.593Z,2.20
2023-02-18T00:41:25.957Z,1.77
2023-02-18T00:43:54.473Z,1.90
2023-02-18T00:46:26.005Z,1.90
2023-02-18T00:48:55.647Z,2.20
2023-02-18T00:51:25.350Z,1.90
2023-02-18T00:53:53.636Z,1.80
2023-02-18T00:56:23.425Z,1.90
2023-02-18T00:58:52.105Z,1.80
2023-02-18T01:01:23.133Z,2.00
2023-02-18T01:03:51.589Z,1.70
2023-02-18T01:06:23.218Z,1.63
2023-02-18T01:08:52.547Z,1.70
2023-02-18T01:11:20.668Z,1.87
2023-02-18T01:13:49.858Z,1.40
2023-02-18T01:16:18.182Z,1.80
2023-02-18T01:18:46.309Z,1.90
2023-02-18T01:21:14.498Z,1.50
2023-02-18T01:23:44.407Z,1.80
2023-02-18T01:26:13.326Z,1.97
2023-02-18T01:28:42.364Z,2.07
2023-02-18T01:31:12.613Z,1.67
2023-02-18T01:33:41.203Z,1.93
2023-02-18T01:36:11.052Z,1.60
2023-02-18T01:38:39.895Z,1.50
2023-02-18T01:41:09.815Z,1.60
2023-02-18T01:43:39.973Z,1.70
2023-02-18T01:46:17.371Z,1.40
2023-02-18T01:48:49.753Z,1.50
2023-02-18T01:51:21.033Z,1.97
2023-02-18T01:53:55.041Z,1.50
2023-02-18T01:56:32.209Z,1.80
2023-02-18T01:59:04.055Z,2.07
2023-02-18T02:01:33.679Z,2.10
2023-02-18T02:04:01.847Z,2.13
2023-02-18T02:06:30.180Z,2.10
2023-02-18T02:09:00.845Z,2.03
2023-02-18T02:11:44.449Z,2.03
2023-02-18T02:14:27.861Z,2.10
2023-02-18T02:17:05.866Z,2.70
2023-02-18T02:20:11.878Z,2.40
2023-02-18T02:23:11.598Z,2.57
2023-02-18T02:26:05.652Z,1.80
2023-02-18T02:29:01.337Z,2.53
2023-02-18T02:31:53.507Z,1.87
2023-02-18T02:34:42.096Z,2.30
2023-02-18T02:37:17.339Z,2.30
2023-02-18T02:39:57.489Z,1.90
2023-02-18T02:42:30.970Z,2.27
2023-02-18T02:45:05.835Z,3.07
2023-02-18T02:47:42.482Z,1.90
2023-02-18T02:50:19.063Z,1.70
2023-02-18T02:52:51.700Z,1.67
2023-02-18T02:55:20.231Z,1.80
2023-02-18T02:57:51.265Z,1.90
2023-02-18T03:00:22.721Z,1.70
2023-02-18T03:03:41.824Z,1.37
2023-02-18T03:06:43.186Z,2.03
2023-02-18T03:09:17.771Z,1.83
2023-02-18T03:11:54.705Z,2.00
2023-02-18T03:14:29.989Z,1.83
2023-02-18T03:17:04.351Z,1.73
2023-02-18T03:19:36.533Z,1.80
2023-02-18T03:22:10.179Z,1.73
2023-02-18T03:24:41.759Z,1.70
2023-02-18T03:27:15.584Z,1.30
2023-02-18T03:29:46.126Z,1.50
2023-02-18T03:32:18.425Z,1.50
2023-02-18T03:34:51.722Z,1.43
2023-02-18T03:37:22.106Z,1.37
2023-02-18T03:39:58.005Z,1.40
2023-02-18T03:42:28.215Z,1.17
2023-02-18T03:44:56.606Z,1.20
2023-02-18T03:47:26.517Z,1.20
2023-02-18T03:49:55.289Z,1.40
2023-02-18T03:52:24.689Z,1.20
2023-02-18T03:54:52.747Z,1.20
2023-02-18T03:57:20.745Z,1.20
2023-02-18T03:59:48.821Z,1.70
2023-02-18T04:02:16.898Z,1.30
2023-02-18T04:04:45.037Z,1.50
2023-02-18T04:07:13.016Z,1.00
2023-02-18T04:09:42.424Z,1.50
2023-02-18T04:12:10.496Z,1.50
2023-02-18T04:14:38.448Z,1.20
2023-02-18T04:17:07.133Z,1.47
2023-02-18T04:19:35.346Z,1.40
2023-02-18T04:22:03.406Z,1.60
2023-02-18T04:24:31.406Z,1.60
2023-02-18T04:27:00.882Z,1.30
2023-02-18T04:29:28.994Z,1.40
2023-02-18T04:31:57.056Z,1.63
2023-02-18T04:34:25.183Z,1.40
2023-02-18T04:36:53.194Z,1.50
2023-02-18T04:39:21.211Z,1.27
2023-02-18T04:41:49.201Z,1.50
2023-02-18T04:44:18.585Z,1.50
2023-02-18T04:46:46.671Z,1.77
2023-02-18T04:49:14.619Z,1.40
2023-02-18T04:51:42.527Z,1.53
2023-02-18T04:54:10.526Z,1.53
2023-02-18T04:56:38.610Z,1.57
2023-02-18T04:59:06.743Z,1.20
2023-02-18T05:01:36.710Z,1.33
2023-02-18T05:04:05.160Z,1.60
2023-02-18T05:06:33.300Z,1.23
2023-02-18T05:09:01.473Z,1.60
2023-02-18T05:11:29.520Z,1.50
2023-02-18T05:13:57.510Z,1.40
2023-02-18T05:16:25.521Z,1.50
2023-02-18T05:18:54.923Z,1.70
2023-02-18T05:21:22.995Z,1.23
2023-02-18T05:23:50.991Z,1.50
2023-02-18T05:26:19.469Z,1.30
2023-02-18T05:28:47.549Z,1.40
2023-02-18T05:31:15.621Z,1.30
2023-02-18T05:33:43.925Z,1.40
2023-02-18T05:36:13.358Z,1.27
2023-02-18T05:38:41.334Z,1.60
2023-02-18T05:41:09.553Z,1.30
2023-02-18T05:43:57.590Z,1.20
2023-02-18T05:46:26.391Z,1.33
2023-02-18T05:48:54.481Z,1.07
2023-02-18T05:51:23.881Z,1.30
2023-02-18T05:53:51.854Z,1.23
2023-02-18T05:56:20.151Z,1.03
2023-02-18T05:58:48.391Z,1.00
2023-02-18T06:01:16.630Z,1.10
2023-02-18T06:03:44.740Z,1.50
2023-02-18T06:06:12.943Z,1.00
2023-02-18T06:08:42.599Z,0.90
2023-02-18T06:11:10.827Z,0.93
2023-02-18T06:13:39.021Z,0.90
2023-02-18T06:16:08.031Z,0.70
2023-02-18T06:18:36.358Z,0.80
2023-02-18T06:21:05.256Z,0.90
2023-02-18T06:23:34.484Z,0.80
2023-02-18T06:26:04.159Z,0.80
2023-02-18T06:28:32.264Z,1.00
2023-02-18T06:31:00.584Z,0.80
2023-02-18T06:33:28.946Z,0.83
2023-02-18T06:35:58.326Z,0.80
2023-02-18T06:38:26.765Z,1.10
2023-02-18T06:43:43.521Z,1.10
2023-02-18T06:46:11.691Z,0.70
2023-02-18T06:48:42.949Z,0.80
2023-02-18T06:51:11.413Z,0.90
2023-02-18T06:53:39.944Z,0.60
2023-02-18T06:56:08.563Z,0.80
2023-02-18T06:58:37.023Z,0.90
2023-02-18T07:01:07.012Z,0.70
2023-02-18T07:03:35.859Z,0.73
2023-02-18T07:06:04.466Z,0.90
2023-02-18T07:08:33.344Z,0.80
2023-02-18T07:11:01.506Z,0.47
2023-02-18T07:13:31.474Z,0.90
2023-02-18T07:16:03.603Z,0.70
2023-02-18T08:03:20.740Z,0.80
2023-02-18T08:05:50.575Z,0.40
2023-02-18T09:24:41.661Z,0.80
2023-02-18T09:27:12.971Z,0.90
2023-02-18T09:29:47.501Z,0.90
2023-02-18T09:32:33.661Z,0.73
2023-02-18T09:35:04.917Z,1.00
2023-02-18T09:40:29.441Z,0.90
2023-02-18T09:48:27.024Z,1.03
2023-02-18T09:50:57.411Z,1.10
2023-02-18T09:53:41.305Z,1.13
2023-02-18T09:56:15.840Z,1.10
2023-02-18T10:07:28.584Z,1.03
2023-02-18T10:12:41.772Z,1.03
2023-02-18T10:15:21.434Z,0.97
2023-02-18T10:17:51.796Z,1.30
2023-02-18T10:20:24.338Z,0.90
2023-02-18T10:22:54.292Z,1.00
2023-02-18T10:25:30.894Z,0.90
2023-02-18T10:28:06.045Z,1.20
2023-02-18T10:39:43.741Z,0.80
2023-02-18T10:46:02.848Z,1.13
2023-02-18T10:59:59.443Z,0.80
2023-02-18T11:02:33.161Z,0.93
2023-02-18T11:05:08.076Z,1.10
2023-02-18T11:07:41.432Z,1.10
2023-02-18T11:10:18.478Z,1.10
2023-02-18T11:16:53.698Z,1.00
2023-02-18T11:19:38.784Z,1.10
2023-02-18T11:22:25.604Z,1.10
2023-02-18T11:25:05.987Z,1.10
2023-02-18T11:27:43.004Z,1.13
2023-02-18T11:33:33.815Z,0.80
2023-02-18T11:36:22.163Z,1.03
2023-02-18T11:38:54.792Z,0.90
2023-02-18T12:04:32.915Z,0.80
2023-02-18T12:07:14.540Z,0.70
2023-02-18T12:09:48.441Z,0.77
2023-02-18T12:12:22.059Z,1.00
2023-02-18T12:14:52.182Z,0.83
2023-02-18T12:17:42.943Z,0.80
2023-02-18T12:20:52.590Z,0.80
2023-02-18T12:26:34.953Z,0.70
2023-02-18T12:35:11.536Z,0.70
2023-02-18T12:47:50.082Z,0.70
2023-02-18T12:50:54.237Z,0.60
2023-02-18T12:56:58.112Z,0.70
2023-02-18T13:00:12.672Z,0.73
2023-02-18T13:03:26.537Z,0.83
2023-02-18T13:06:06.882Z,1.10
2023-02-18T13:25:37.228Z,0.90
2023-02-18T13:28:16.580Z,1.00
2023-02-18T13:30:53.968Z,0.90
2023-02-18T13:36:19.192Z,1.10
2023-02-18T13:38:57.462Z,0.90
2023-02-18T13:45:32.964Z,0.73
2023-02-18T13:51:00.588Z,1.10
2023-02-18T13:53:45.794Z,1.03
2023-02-18T14:02:24.404Z,1.13
2023-02-18T14:05:09.035Z,1.00
2023-02-18T14:07:50.505Z,0.90
2023-02-18T14:10:31.565Z,1.00
2023-02-18T14:13:07.874Z,0.80
2023-02-18T14:15:57.895Z,0.87
2023-02-18T14:18:37.163Z,0.93
2023-02-18T14:29:32.477Z,1.03
2023-02-18T14:35:04.284Z,1.00
2023-02-18T14:38:05.700Z,0.90
2023-02-18T14:40:59.304Z,0.83
2023-02-18T14:43:51.691Z,0.77
2023-02-18T14:46:34.323Z,0.90
2023-02-18T14:49:24.926Z,0.80
2023-02-18T14:51:56.782Z,0.90
2023-02-18T14:54:30.815Z,1.07
2023-02-18T14:57:03.609Z,1.10
2023-02-18T15:02:38.797Z,1.00
2023-02-18T15:05:19.402Z,1.23
2023-02-18T15:14:25.974Z,1.00
2023-02-18T15:59:26.872Z,0.97
2023-02-18T16:02:06.651Z,0.90
2023-02-18T16:15:53.477Z,0.80
2023-02-18T16:18:38.831Z,0.90
2023-02-18T16:24:27.966Z,0.90
2023-02-18T16:35:49.421Z,1.27
2023-02-18T16:38:23.403Z,1.20
2023-02-18T16:41:01.954Z,0.90
2023-02-18T16:43:35.740Z,1.00
2023-02-18T16:46:25.907Z,1.30
2023-02-18T16:48:57.351Z,0.90
2023-02-18T16:51:34.957Z,1.10
2023-02-18T16:54:03.578Z,1.03
2023-02-18T16:56:35.604Z,1.20
2023-02-18T17:04:47.337Z,1.43
2023-02-18T17:07:18.821Z,0.90
2023-02-18T17:16:17.614Z,1.00
2023-02-18T17:19:14.176Z,1.20
2023-02-18T17:21:59.733Z,1.20
2023-02-18T17:24:58.162Z,1.03
2023-02-18T17:27:39.453Z,0.90
2023-02-18T17:30:12.282Z,1.20
2023-02-18T17:32:42.591Z,1.13
2023-02-18T17:48:14.123Z,1.13
2023-02-18T17:50:46.301Z,1.10
2023-02-18T17:56:00.637Z,1.00
2023-02-18T17:58:29.967Z,1.97
2023-02-18T18:01:02.907Z,0.80
2023-02-18T18:06:21.183Z,1.40
2023-02-18T18:08:55.451Z,1.03
2023-02-18T18:11:26.097Z,1.33
2023-02-18T18:13:55.067Z,1.10
2023-02-18T18:16:23.603Z,1.23
2023-02-18T18:18:54.035Z,0.93
2023-02-18T18:21:32.735Z,1.33
2023-02-18T18:24:05.720Z,0.90
2023-02-18T18:26:34.781Z,1.40
2023-02-18T18:29:03.443Z,1.40
2023-02-18T18:31:32.618Z,1.40
2023-02-18T18:34:05.961Z,1.10
2023-02-18T18:36:36.828Z,1.40
2023-02-18T18:39:12.835Z,1.80
2023-02-18T18:41:43.187Z,1.50
2023-02-18T18:46:58.740Z,1.20
2023-02-18T18:50:00.615Z,2.00
2023-02-18T18:55:31.933Z,1.27
2023-02-18T18:58:11.264Z,1.40
2023-02-18T19:00:43.288Z,1.17
2023-02-18T19:03:15.472Z,1.70
2023-02-18T19:05:51.322Z,1.10
2023-02-18T19:08:23.701Z,1.37
2023-02-18T19:10:55.612Z,1.20
2023-02-18T19:13:27.315Z,1.70
2023-02-18T19:16:10.757Z,1.60
2023-02-18T19:18:40.862Z,1.57
2023-02-18T19:21:15.031Z,1.63
2023-02-18T19:23:45.412Z,1.53
2023-02-18T19:29:10.464Z,1.40
2023-02-18T19:31:53.093Z,1.57
2023-02-18T19:34:23.499Z,1.83
2023-02-18T19:48:32.508Z,1.33
2023-02-18T19:52:13.107Z,1.37
2023-02-18T19:54:58.975Z,1.40
2023-02-18T19:57:58.478Z,1.40
2023-02-18T20:08:55.245Z,1.37
2023-02-18T20:11:39.510Z,2.10
2023-02-18T20:22:17.940Z,1.20
2023-02-18T20:24:48.867Z,1.27
2023-02-18T20:27:24.010Z,1.30
2023-02-18T20:30:07.495Z,1.30
2023-02-18T20:32:37.819Z,1.50
2023-02-18T20:37:57.699Z,1.70
2023-02-18T20:40:30.700Z,1.83
2023-02-18T20:43:11.384Z,1.50
2023-02-18T20:45:42.484Z,1.13
2023-02-18T21:04:37.270Z,1.47
2023-02-18T21:07:09.505Z,1.30
2023-02-18T21:09:39.617Z,1.10
2023-02-18T21:15:25.393Z,1.60
2023-02-18T21:17:58.240Z,1.73
2023-02-18T21:20:47.470Z,1.27
2023-02-18T21:23:22.028Z,1.30
2023-02-18T21:25:53.363Z,1.17
2023-02-18T21:28:24.356Z,1.10
2023-02-18T22:06:14.361Z,1.40
2023-02-18T22:14:13.583Z,1.10
2023-02-18T22:22:35.793Z,1.47
2023-02-18T22:25:04.729Z,1.40
2023-02-18T22:27:43.798Z,1.27
2023-02-18T22:30:38.901Z,1.50
2023-02-18T22:38:30.625Z,1.40
2023-02-18T22:40:59.402Z,1.40
2023-02-18T22:43:28.722Z,1.37
2023-02-18T22:45:58.904Z,1.30
2023-02-18T22:48:30.067Z,1.50
2023-02-18T22:50:59.506Z,1.47
2023-02-18T22:53:49.147Z,1.30
2023-02-18T22:56:30.682Z,1.40
2023-02-18T22:59:01.251Z,1.50
2023-02-18T23:07:20.050Z,1.40
2023-02-18T23:09:52.172Z,1.30
2023-02-18T23:12:23.526Z,1.47
2023-02-18T23:14:53.420Z,1.63
2023-02-18T23:17:22.664Z,1.40
2023-02-18T23:19:54.171Z,1.50
2023-02-18T23:22:31.540Z,1.60
2023-02-18T23:25:03.320Z,1.40
2023-02-18T23:27:35.335Z,1.33
2023-02-18T23:30:05.812Z,1.53
2023-02-18T23:38:16.469Z,1.27
2023-02-18T23:40:52.168Z,1.50
2023-02-18T23:43:24.340Z,1.20
2023-02-18T23:45:57.901Z,1.47
2023-02-18T23:48:32.672Z,1.60
2023-02-18T23:51:10.503Z,1.50
2023-02-18T23:53:45.476Z,1.50
2023-02-18T23:56:19.019Z,1.40
2023-02-18T23:58:53.488Z,1.60
